Terminal Aerodrome Forecast
Issued by NWS Austin/San Antonio, TX

Home | Current Version | Previous Version | Text Only | Print | Product List | Glossary On
Versions: 1 2 3 4 5 6 7 8 9 10 11 12 13 14 15 16 17 18 19 20 21
540
FTUS44 KEWX 030735 AAA
TAFSAT
TAF AMD
KSAT 030735Z 0308/0412 34006KT P6SM BKN060 BKN090
     FM031500 04009KT P6SM SCT250
     FM040100 33004KT P6SM SKC=

USA.gov is the U.S. government's official web portal to all federal, state and local government web resources and services.